createdAt,value
2023-02-09T00:01:38.023Z,-0.23
2023-02-09T00:04:08.038Z,-0.22
2023-02-09T00:06:40.370Z,-0.22
2023-02-09T00:09:10.118Z,-0.19
2023-02-09T00:11:52.302Z,-0.16
2023-02-09T00:14:23.389Z,-0.15
2023-02-09T00:16:53.446Z,-0.11
2023-02-09T00:19:24.630Z,-0.05
2023-02-09T00:21:57.400Z,0.04
2023-02-09T00:24:27.427Z,0.09
2023-02-09T00:26:57.186Z,0.13
2023-02-09T00:29:27.691Z,0.15
2023-02-09T00:31:57.568Z,0.15
2023-02-09T00:34:27.317Z,0.17
2023-02-09T00:36:59.589Z,0.18
2023-02-09T00:39:29.327Z,0.19
2023-02-09T00:42:11.385Z,0.19
2023-02-09T00:44:42.730Z,0.16
2023-02-09T00:47:13.058Z,0.17
2023-02-09T00:49:42.880Z,0.17
2023-02-09T00:52:15.165Z,0.17
2023-02-09T00:54:44.854Z,0.16
2023-02-09T00:57:14.598Z,0.14
2023-02-09T00:59:44.360Z,0.16
2023-02-09T01:02:14.016Z,0.20
2023-02-09T01:04:43.863Z,0.24
2023-02-09T01:07:16.158Z,0.26
2023-02-09T01:09:45.829Z,0.26
2023-02-09T01:12:15.634Z,0.28
2023-02-09T01:14:45.637Z,0.26
2023-02-09T01:17:15.656Z,0.25
2023-02-09T01:19:45.327Z,0.24
2023-02-09T01:22:18.205Z,0.22
2023-02-09T01:24:47.941Z,0.23
2023-02-09T01:27:17.786Z,0.22
2023-02-09T01:29:47.981Z,0.21
2023-02-09T01:32:17.739Z,0.19
2023-02-09T01:34:47.509Z,0.20
2023-02-09T01:37:19.832Z,0.18
2023-02-09T01:39:49.761Z,0.20
2023-02-09T01:42:20.134Z,0.22
2023-02-09T01:45:08.802Z,0.23
2023-02-09T01:47:44.654Z,0.25
2023-02-09T01:50:16.140Z,0.25
2023-02-09T01:52:51.094Z,0.22
2023-02-09T01:55:25.225Z,0.20
2023-02-09T01:58:00.503Z,0.18
2023-02-09T02:00:30.684Z,0.17
2023-02-09T02:03:04.725Z,0.16
2023-02-09T02:05:37.356Z,0.14
2023-02-09T02:08:17.908Z,0.13
2023-02-09T02:10:47.882Z,0.11
2023-02-09T02:13:17.829Z,0.11
2023-02-09T02:16:01.983Z,0.11
2023-02-09T02:18:51.524Z,0.10
2023-02-09T02:22:12.270Z,0.08
2023-02-09T02:25:18.786Z,0.11
2023-02-09T02:27:51.624Z,0.13
2023-02-09T02:30:39.696Z,0.13
2023-02-09T02:33:29.792Z,0.11
2023-02-09T02:36:07.124Z,0.12
2023-02-09T02:38:41.811Z,0.11
2023-02-09T02:41:17.827Z,0.08
2023-02-09T02:44:00.018Z,0.07
2023-02-09T02:46:36.229Z,0.07
2023-02-09T02:49:15.091Z,0.05
2023-02-09T02:51:48.515Z,0.05
2023-02-09T02:54:22.579Z,0.04
2023-02-09T02:56:56.422Z,0.02
2023-02-09T02:59:30.118Z,0.02
2023-02-09T03:02:06.389Z,0.03
2023-02-09T03:04:40.760Z,0.06
2023-02-09T03:07:10.602Z,0.08
2023-02-09T03:09:40.341Z,0.09
2023-02-09T03:12:18.103Z,0.07
2023-02-09T03:21:17.414Z,0.00
2023-02-09T03:23:55.551Z,-0.01
2023-02-09T03:26:29.569Z,0.00
2023-02-09T03:29:02.045Z,-0.02
2023-02-09T03:31:33.440Z,-0.01
2023-02-09T03:34:03.619Z,-0.02
2023-02-09T03:36:40.319Z,-0.03
2023-02-09T03:39:10.031Z,-0.05
2023-02-09T03:41:39.934Z,-0.04
2023-02-09T03:44:22.064Z,0.00
2023-02-09T03:46:51.887Z,0.04
2023-02-09T03:49:21.765Z,0.03
2023-02-09T03:51:54.348Z,0.04
2023-02-09T03:54:24.438Z,0.04
2023-02-09T03:56:54.244Z,0.02
2023-02-09T03:59:25.326Z,0.02
2023-02-09T04:01:55.735Z,0.00
2023-02-09T04:04:25.875Z,-0.03
2023-02-09T04:06:58.945Z,-0.02
2023-02-09T04:09:30.042Z,-0.04
2023-02-09T04:11:59.937Z,-0.04
2023-02-09T04:14:29.645Z,-0.04
2023-02-09T04:16:59.266Z,-0.05
2023-02-09T04:19:29.329Z,-0.05
2023-02-09T04:22:01.675Z,-0.05
2023-02-09T04:24:32.031Z,-0.01
2023-02-09T04:27:01.720Z,0.02
2023-02-09T04:29:31.588Z,0.03
2023-02-09T04:32:01.324Z,0.01
2023-02-09T04:34:33.846Z,0.00
2023-02-09T04:37:06.131Z,-0.02
2023-02-09T04:39:35.865Z,-0.02
2023-02-09T04:42:05.688Z,-0.02
2023-02-09T04:44:35.359Z,-0.04
2023-02-09T04:47:05.062Z,-0.04
2023-02-09T04:49:34.857Z,-0.07
2023-02-09T04:52:07.505Z,-0.07
2023-02-09T04:54:37.168Z,-0.08
2023-02-09T04:57:19.293Z,-0.09
2023-02-09T04:59:49.030Z,-0.11
2023-02-09T05:02:18.779Z,-0.09
2023-02-09T05:04:48.515Z,-0.07
2023-02-09T05:07:20.888Z,-0.04
2023-02-09T05:09:50.579Z,-0.02
2023-02-09T05:12:20.272Z,-0.01
2023-02-09T05:14:49.964Z,-0.01
2023-02-09T05:17:21.289Z,-0.01
2023-02-09T05:19:51.434Z,-0.02
2023-02-09T05:22:23.800Z,-0.05
2023-02-09T05:24:53.712Z,-0.06
2023-02-09T05:27:23.420Z,-0.08
2023-02-09T05:29:53.071Z,-0.08
2023-02-09T05:32:22.821Z,-0.11
2023-02-09T05:34:52.594Z,-0.11
2023-02-09T05:37:24.920Z,-0.13
2023-02-09T05:39:54.666Z,-0.13
2023-02-09T05:42:24.409Z,-0.13
2023-02-09T05:44:54.520Z,-0.11
2023-02-09T05:47:26.844Z,-0.07
2023-02-09T05:49:56.541Z,-0.05
2023-02-09T05:52:28.934Z,-0.04
2023-02-09T05:54:58.612Z,-0.06
2023-02-09T05:57:28.407Z,-0.06
2023-02-09T05:59:58.168Z,-0.08
2023-02-09T06:02:27.930Z,-0.08
2023-02-09T06:04:57.615Z,-0.09
2023-02-09T06:07:30.066Z,-0.10
2023-02-09T06:09:59.774Z,-0.12
2023-02-09T06:12:29.600Z,-0.11
2023-02-09T06:14:59.381Z,-0.12
2023-02-09T06:17:29.138Z,-0.14
2023-02-09T06:19:58.851Z,-0.14
2023-02-09T06:22:31.979Z,-0.14
2023-02-09T06:25:01.801Z,-0.10
2023-02-09T06:27:31.553Z,-0.08
2023-02-09T06:30:01.232Z,-0.05
2023-02-09T06:32:30.958Z,-0.04
2023-02-09T06:35:00.784Z,-0.06
2023-02-09T06:37:33.306Z,-0.07
2023-02-09T06:40:03.098Z,-0.07
2023-02-09T06:42:44.097Z,-0.09
2023-02-09T06:45:14.361Z,-0.10
2023-02-09T06:47:44.700Z,-0.11
2023-02-09T06:50:16.018Z,-0.12
2023-02-09T06:52:48.992Z,-0.16
2023-02-09T06:55:18.859Z,-0.16
2023-02-09T06:57:48.837Z,-0.18
2023-02-09T07:00:19.666Z,-0.18
2023-02-09T07:02:49.778Z,-0.20
2023-02-09T07:05:20.950Z,-0.15
2023-02-09T07:07:53.308Z,-0.09
2023-02-09T07:10:23.275Z,-0.08
2023-02-09T07:12:53.097Z,-0.07
2023-02-09T07:15:22.872Z,-0.07
2023-02-09T07:17:52.607Z,-0.07
2023-02-09T07:20:22.633Z,-0.07
2023-02-09T07:22:54.897Z,-0.08
2023-02-09T07:25:24.633Z,-0.09
2023-02-09T07:27:54.458Z,-0.09
2023-02-09T07:30:24.316Z,-0.09
2023-02-09T07:32:53.983Z,-0.10
2023-02-09T07:35:23.717Z,-0.09
2023-02-09T07:37:56.073Z,-0.10
2023-02-09T07:40:25.943Z,-0.06
2023-02-09T07:42:55.740Z,-0.04
2023-02-09T07:45:25.525Z,0.01
2023-02-09T07:47:55.198Z,0.05
2023-02-09T07:50:24.968Z,0.10
2023-02-09T07:52:58.620Z,0.13
2023-02-09T07:55:28.305Z,0.19
2023-02-09T07:57:58.036Z,0.24
2023-02-09T08:00:27.958Z,0.34
2023-02-09T08:02:58.116Z,0.43
2023-02-09T08:05:33.887Z,0.47
2023-02-09T08:08:06.287Z,0.54
2023-02-09T08:10:36.328Z,0.62
2023-02-09T08:13:06.243Z,0.62
2023-02-09T08:15:43.968Z,0.69
2023-02-09T08:18:18.714Z,0.73
2023-02-09T08:20:49.532Z,0.75
2023-02-09T08:23:26.102Z,0.77
2023-02-09T08:25:56.920Z,0.82
2023-02-09T08:28:41.639Z,0.88
2023-02-09T08:31:12.960Z,0.91
2023-02-09T08:33:43.341Z,0.94
2023-02-09T08:36:14.254Z,0.94
2023-02-09T08:38:48.189Z,0.97
2023-02-09T08:41:19.679Z,0.98
2023-02-09T08:43:53.121Z,1.01
2023-02-09T08:46:22.876Z,1.02
2023-02-09T08:48:52.611Z,1.05
2023-02-09T08:51:22.381Z,1.08
2023-02-09T08:53:54.854Z,1.10
2023-02-09T08:56:25.632Z,1.12
2023-02-09T08:58:55.385Z,1.17
2023-02-09T09:01:25.103Z,1.21
2023-02-09T09:03:55.111Z,1.30
2023-02-09T09:06:25.078Z,1.36
2023-02-09T09:08:57.660Z,1.42
2023-02-09T09:11:28.247Z,1.44
2023-02-09T09:13:58.375Z,1.43
2023-02-09T09:16:28.178Z,1.46
2023-02-09T09:18:57.981Z,1.49
2023-02-09T09:21:28.434Z,1.52
2023-02-09T09:24:00.754Z,1.56
2023-02-09T09:26:30.583Z,1.61
2023-02-09T09:29:00.548Z,1.64
2023-02-09T09:31:30.836Z,1.71
2023-02-09T09:34:00.593Z,1.73
2023-02-09T09:36:30.534Z,1.78
2023-02-09T09:39:03.119Z,1.81
2023-02-09T09:41:37.581Z,1.87
2023-02-09T09:44:16.667Z,1.93
2023-02-09T09:46:49.631Z,2.05
2023-02-09T09:49:25.741Z,2.15
2023-02-09T09:51:59.737Z,2.19
2023-02-09T09:54:36.302Z,2.20
2023-02-09T09:57:06.349Z,2.23
2023-02-09T09:59:39.429Z,2.29
2023-02-09T10:02:21.175Z,2.36
2023-02-09T10:04:51.288Z,2.43
2023-02-09T10:07:23.947Z,2.50
2023-02-09T10:10:02.210Z,2.60
2023-02-09T10:12:39.243Z,2.69
2023-02-09T10:15:28.116Z,2.76
2023-02-09T10:17:58.296Z,2.88
2023-02-09T10:20:46.924Z,2.91
2023-02-09T10:23:28.781Z,2.99
2023-02-09T10:26:05.821Z,3.07
2023-02-09T10:28:37.604Z,3.14
2023-02-09T10:31:14.956Z,3.11
2023-02-09T10:33:47.290Z,3.16
2023-02-09T10:36:30.272Z,3.22
2023-02-09T10:39:13.696Z,3.26
2023-02-09T10:41:49.350Z,3.34
2023-02-09T10:44:23.409Z,3.39
2023-02-09T10:46:53.705Z,3.45
2023-02-09T10:49:36.478Z,3.49
2023-02-09T10:52:17.007Z,3.59
2023-02-09T10:54:50.820Z,3.66
2023-02-09T10:57:31.011Z,3.70
2023-02-09T11:00:02.558Z,3.75
2023-02-09T11:02:41.346Z,3.83
2023-02-09T11:05:29.701Z,3.91
2023-02-09T11:08:09.914Z,4.05
2023-02-09T11:10:46.151Z,4.16
2023-02-09T11:13:27.817Z,4.22
2023-02-09T11:16:30.524Z,4.28
2023-02-09T11:19:05.877Z,4.35
2023-02-09T11:21:49.675Z,4.36
2023-02-09T11:24:27.125Z,4.43
2023-02-09T11:27:03.557Z,4.49
2023-02-09T11:29:44.038Z,4.51
2023-02-09T11:32:22.485Z,4.57
2023-02-09T11:35:13.975Z,4.62
2023-02-09T11:37:53.110Z,4.67
2023-02-09T11:40:27.609Z,4.75
2023-02-09T11:43:13.132Z,4.78
2023-02-09T11:45:48.982Z,4.87
2023-02-09T11:48:26.194Z,4.89
2023-02-09T11:51:04.527Z,4.91
2023-02-09T11:53:43.936Z,4.92
2023-02-09T11:56:16.760Z,4.97
2023-02-09T11:58:51.596Z,5.02
2023-02-09T12:01:36.139Z,5.06
2023-02-09T12:04:18.741Z,5.10
2023-02-09T12:06:52.901Z,5.13
2023-02-09T12:09:38.676Z,5.14
2023-02-09T12:12:18.638Z,5.19
2023-02-09T12:14:58.444Z,5.21
2023-02-09T12:17:42.717Z,5.24
2023-02-09T12:20:26.900Z,5.26
2023-02-09T12:23:04.579Z,5.27
2023-02-09T12:25:50.213Z,5.23
2023-02-09T12:28:48.449Z,5.19
2023-02-09T12:31:24.420Z,5.28
2023-02-09T12:34:16.186Z,5.30
2023-02-09T12:37:30.417Z,5.32
2023-02-09T12:40:20.248Z,5.37
2023-02-09T12:43:23.758Z,5.44
2023-02-09T12:46:20.512Z,5.55
2023-02-09T12:49:02.251Z,5.62
2023-02-09T12:52:12.735Z,5.58
2023-02-09T12:54:51.986Z,5.65
2023-02-09T12:57:54.941Z,5.65
2023-02-09T13:00:44.071Z,5.63
2023-02-09T13:03:24.682Z,5.68
2023-02-09T13:05:59.820Z,5.71
2023-02-09T13:08:53.417Z,5.69
2023-02-09T13:11:29.415Z,5.76
2023-02-09T13:14:03.294Z,5.79
2023-02-09T13:16:53.512Z,5.79
2023-02-09T13:19:53.398Z,5.77
2023-02-09T13:22:32.987Z,5.88
2023-02-09T13:25:16.593Z,5.91
2023-02-09T13:27:48.366Z,5.95
2023-02-09T13:30:28.536Z,5.92
2023-02-09T13:33:08.632Z,5.94
2023-02-09T13:35:46.873Z,5.93
2023-02-09T13:38:21.615Z,5.98
2023-02-09T13:40:55.510Z,6.02
2023-02-09T13:43:32.242Z,6.02
2023-02-09T13:46:03.371Z,6.05
2023-02-09T13:48:35.685Z,6.10
2023-02-09T13:51:17.230Z,6.13
2023-02-09T13:53:59.148Z,6.12
2023-02-09T13:56:33.883Z,6.18
2023-02-09T13:59:04.314Z,6.16
2023-02-09T14:01:36.572Z,6.21
2023-02-09T14:04:12.930Z,6.25
2023-02-09T14:06:47.299Z,6.29
2023-02-09T14:09:21.221Z,6.31
2023-02-09T14:11:56.434Z,6.33
2023-02-09T14:14:29.580Z,6.33
2023-02-09T14:17:24.857Z,6.30
2023-02-09T14:19:56.670Z,6.32
2023-02-09T14:22:33.630Z,6.34
2023-02-09T14:25:03.805Z,6.39
2023-02-09T14:27:41.985Z,6.40
2023-02-09T14:30:18.409Z,6.40
2023-02-09T14:32:48.512Z,6.42
2023-02-09T14:35:22.169Z,6.46
2023-02-09T14:37:53.990Z,6.47
2023-02-09T14:40:34.330Z,6.44
2023-02-09T14:43:25.103Z,6.44
2023-02-09T14:46:01.995Z,6.48
2023-02-09T14:48:33.278Z,6.52
2023-02-09T14:51:05.239Z,6.56
2023-02-09T14:53:36.040Z,6.57
2023-02-09T14:56:05.746Z,6.55
2023-02-09T14:58:38.092Z,6.57
2023-02-09T15:01:09.172Z,6.58
2023-02-09T15:03:38.922Z,6.58
2023-02-09T15:06:09.184Z,6.57
2023-02-09T15:08:40.376Z,6.56
2023-02-09T15:11:25.956Z,6.54
2023-02-09T15:14:01.662Z,6.52
2023-02-09T15:16:31.373Z,6.55
2023-02-09T15:19:04.089Z,6.58
2023-02-09T15:21:33.817Z,6.55
2023-02-09T15:24:03.581Z,6.54
2023-02-09T15:26:38.424Z,6.53
2023-02-09T15:29:14.112Z,6.49
2023-02-09T15:31:44.217Z,6.47
2023-02-09T15:34:15.567Z,6.46
2023-02-09T15:36:45.370Z,6.46
2023-02-09T15:39:21.479Z,6.44
2023-02-09T15:42:03.592Z,6.43
2023-02-09T15:44:48.584Z,6.43
2023-02-09T15:47:30.673Z,6.43
2023-02-09T15:50:00.444Z,6.40
2023-02-09T15:52:33.034Z,6.40
2023-02-09T15:55:02.988Z,6.38
2023-02-09T15:57:32.972Z,6.33
2023-02-09T16:00:11.799Z,6.31
2023-02-09T16:02:41.671Z,6.26
2023-02-09T16:05:11.565Z,6.22
2023-02-09T16:07:41.299Z,6.20
2023-02-09T16:10:16.239Z,6.15
2023-02-09T16:12:45.963Z,6.15
2023-02-09T16:15:22.927Z,6.09
2023-02-09T16:17:52.762Z,6.11
2023-02-09T16:20:25.807Z,6.08
2023-02-09T16:22:57.511Z,6.05
2023-02-09T16:25:28.884Z,6.02
2023-02-09T16:28:01.078Z,6.01
2023-02-09T16:30:37.888Z,5.98
2023-02-09T16:33:07.746Z,5.95
2023-02-09T16:35:37.434Z,5.94
2023-02-09T16:38:19.007Z,5.89
2023-02-09T16:40:52.054Z,5.89
2023-02-09T16:43:22.630Z,5.89
2023-02-09T16:46:03.386Z,5.86
2023-02-09T16:48:35.730Z,5.85
2023-02-09T16:51:05.827Z,5.83
2023-02-09T16:53:40.811Z,5.80
2023-02-09T16:56:12.478Z,5.79
2023-02-09T16:58:42.365Z,5.77
2023-02-09T17:01:21.149Z,5.74
2023-02-09T17:03:53.592Z,5.73
2023-02-09T17:06:25.472Z,5.71
2023-02-09T17:08:56.792Z,5.67
2023-02-09T17:11:27.900Z,5.66
2023-02-09T17:13:57.588Z,5.66
2023-02-09T17:16:34.041Z,5.63
2023-02-09T17:19:05.479Z,5.62
2023-02-09T17:21:38.966Z,5.61
2023-02-09T17:24:14.254Z,5.61
2023-02-09T17:26:44.115Z,5.60
2023-02-09T17:29:14.629Z,5.60
2023-02-09T17:31:53.168Z,5.59
2023-02-09T17:34:27.296Z,5.57
2023-02-09T17:36:57.323Z,5.56
2023-02-09T17:39:29.902Z,5.56
2023-02-09T17:42:01.014Z,5.55
2023-02-09T17:44:45.617Z,5.54
2023-02-09T17:47:20.888Z,5.53
2023-02-09T17:49:50.617Z,5.53
2023-02-09T17:52:21.616Z,5.54
2023-02-09T17:54:51.547Z,5.54
2023-02-09T17:57:21.267Z,5.56
2023-02-09T17:59:51.017Z,5.56
2023-02-09T18:02:23.390Z,5.57
2023-02-09T18:04:53.089Z,5.57
2023-02-09T18:07:22.828Z,5.59
2023-02-09T18:09:54.433Z,5.56
2023-02-09T18:12:29.174Z,5.57
2023-02-09T18:14:59.293Z,5.55
2023-02-09T18:17:31.668Z,5.53
2023-02-09T18:20:01.421Z,5.53
2023-02-09T18:22:31.314Z,5.52
2023-02-09T18:25:01.580Z,5.51
2023-02-09T18:27:31.377Z,5.51
2023-02-09T18:30:01.128Z,5.53
2023-02-09T18:32:33.466Z,5.53
2023-02-09T18:35:03.169Z,5.54
2023-02-09T18:37:32.873Z,5.56
2023-02-09T18:40:02.625Z,5.56
2023-02-09T18:42:32.419Z,5.57
2023-02-09T18:45:02.556Z,5.56
2023-02-09T18:47:36.498Z,5.53
2023-02-09T18:50:06.831Z,5.53
2023-02-09T18:52:36.739Z,5.52
2023-02-09T18:55:06.654Z,5.55
2023-02-09T18:57:36.397Z,5.55
2023-02-09T19:00:07.890Z,5.57
2023-02-09T19:02:40.233Z,5.56
2023-02-09T19:05:10.371Z,5.57
2023-02-09T19:07:40.133Z,5.57
2023-02-09T19:10:11.135Z,5.60
2023-02-09T19:12:41.637Z,5.59
2023-02-09T19:15:11.854Z,5.59
2023-02-09T19:17:44.614Z,5.55
2023-02-09T19:20:17.994Z,5.56
2023-02-09T19:22:48.165Z,5.56
2023-02-09T19:25:18.107Z,5.55
2023-02-09T19:27:47.697Z,5.53
2023-02-09T19:30:21.510Z,5.50
2023-02-09T19:32:54.037Z,5.51
2023-02-09T19:35:24.720Z,5.52
2023-02-09T19:37:55.064Z,5.53
2023-02-09T19:40:28.630Z,5.52
2023-02-09T19:42:58.916Z,5.55
2023-02-09T19:45:31.105Z,5.57
2023-02-09T19:48:03.491Z,5.59
2023-02-09T19:50:33.217Z,5.61
2023-02-09T19:53:03.011Z,5.64
2023-02-09T19:55:32.822Z,5.65
2023-02-09T19:58:02.519Z,5.65
2023-02-09T20:00:32.278Z,5.65
2023-02-09T20:03:04.743Z,5.66
2023-02-09T20:05:34.543Z,5.66
2023-02-09T20:08:05.241Z,5.65
2023-02-09T20:10:34.972Z,5.64
2023-02-09T20:13:05.673Z,5.62
2023-02-09T20:15:36.275Z,5.64
2023-02-09T20:18:08.730Z,5.64
2023-02-09T20:20:38.524Z,5.66
2023-02-09T20:23:08.313Z,5.66
2023-02-09T20:25:38.199Z,5.69
2023-02-09T20:28:08.381Z,5.71
2023-02-09T20:30:38.375Z,5.72
2023-02-09T20:33:11.666Z,5.70
2023-02-09T20:35:43.193Z,5.70
2023-02-09T20:38:13.730Z,5.70
2023-02-09T20:40:45.491Z,5.70
2023-02-09T20:43:28.313Z,5.69
2023-02-09T20:46:10.467Z,5.69
2023-02-09T20:48:43.018Z,5.71
2023-02-09T20:51:12.880Z,5.70
2023-02-09T20:53:42.847Z,5.71
2023-02-09T20:56:12.620Z,5.72
2023-02-09T20:58:42.486Z,5.73
2023-02-09T21:01:12.286Z,5.74
2023-02-09T21:03:44.840Z,5.75
2023-02-09T21:06:16.265Z,5.76
2023-02-09T21:08:46.419Z,5.76
2023-02-09T21:11:17.328Z,5.76
2023-02-09T21:13:47.355Z,5.77
2023-02-09T21:16:20.377Z,5.76
2023-02-09T21:18:53.343Z,5.74
2023-02-09T21:21:23.750Z,5.75
2023-02-09T21:23:53.433Z,5.77
2023-02-09T21:26:25.123Z,5.77
2023-02-09T21:28:58.200Z,5.77
2023-02-09T21:31:30.446Z,5.77
2023-02-09T21:34:02.824Z,5.77
2023-02-09T21:36:32.694Z,5.79
2023-02-09T21:39:02.478Z,5.80
2023-02-09T21:41:44.589Z,5.83
2023-02-09T21:44:15.192Z,5.85
2023-02-09T21:46:45.091Z,5.84
2023-02-09T21:49:17.799Z,5.84
2023-02-09T21:51:48.044Z,5.81
2023-02-09T21:54:18.853Z,5.79
2023-02-09T21:56:48.832Z,5.79
2023-02-09T21:59:18.652Z,5.79
2023-02-09T22:01:48.357Z,5.79
2023-02-09T22:04:20.893Z,5.78
2023-02-09T22:06:50.685Z,5.78
2023-02-09T22:09:20.506Z,5.79
2023-02-09T22:11:50.264Z,5.80
2023-02-09T22:14:21.071Z,5.82
2023-02-09T22:16:50.858Z,5.84
2023-02-09T22:19:23.314Z,5.85
2023-02-09T22:21:53.597Z,5.85
2023-02-09T22:24:23.325Z,5.83
2023-02-09T22:26:53.432Z,5.85
2023-02-09T22:29:23.250Z,5.80
2023-02-09T22:31:53.058Z,5.80
2023-02-09T22:34:25.375Z,5.80
2023-02-09T22:36:55.927Z,5.82
2023-02-09T22:39:25.788Z,5.80
2023-02-09T22:41:58.166Z,5.79
2023-02-09T22:44:28.000Z,5.79
2023-02-09T22:46:57.662Z,5.82
2023-02-09T22:49:30.030Z,5.84
2023-02-09T22:51:59.731Z,5.82
2023-02-09T22:54:31.077Z,5.85
2023-02-09T22:57:00.792Z,5.84
2023-02-09T22:59:30.538Z,5.84
2023-02-09T23:02:00.307Z,5.80
2023-02-09T23:04:33.305Z,5.79
2023-02-09T23:07:04.132Z,5.77
2023-02-09T23:09:34.543Z,5.77
2023-02-09T23:12:04.449Z,5.76
2023-02-09T23:14:34.168Z,5.73
2023-02-09T23:17:03.884Z,5.72
2023-02-09T23:19:36.266Z,5.71
2023-02-09T23:22:06.046Z,5.71
2023-02-09T23:24:35.754Z,5.73
2023-02-09T23:27:05.470Z,5.71
2023-02-09T23:29:35.173Z,5.73
2023-02-09T23:32:05.012Z,5.71
2023-02-09T23:34:37.474Z,5.69
2023-02-09T23:37:18.106Z,5.67
2023-02-09T23:39:53.346Z,5.66
2023-02-09T23:42:23.041Z,5.66
2023-02-09T23:44:52.712Z,5.65
2023-02-09T23:47:22.454Z,5.65
2023-02-09T23:49:54.743Z,5.65
2023-02-09T23:52:24.468Z,5.63
2023-02-09T23:54:54.144Z,5.64
2023-02-09T23:57:23.976Z,5.61
2023-02-09T23:59:56.383Z,5.63
